sensor_id;sensor_type;location;lat;lon;timestamp;temperature;humidity
67161;DHT22;54088;52.238;21.104;2022-10-16T00:01:21;15.80;76.40
67161;DHT22;54088;52.238;21.104;2022-10-16T00:03:48;15.80;76.50
67161;DHT22;54088;52.238;21.104;2022-10-16T00:06:15;15.80;76.60
67161;DHT22;54088;52.238;21.104;2022-10-16T00:08:41;15.80;76.60
67161;DHT22;54088;52.238;21.104;2022-10-16T00:11:10;15.80;76.60
67161;DHT22;54088;52.238;21.104;2022-10-16T00:13:38;15.80;76.50
67161;DHT22;54088;52.238;21.104;2022-10-16T00:16:04;15.80;76.60
67161;DHT22;54088;52.238;21.104;2022-10-16T00:18:31;15.90;76.70
67161;DHT22;54088;52.238;21.104;2022-10-16T00:21:03;15.80;76.60
67161;DHT22;54088;52.238;21.104;2022-10-16T00:23:28;15.80;76.90
67161;DHT22;54088;52.238;21.104;2022-10-16T00:25:59;15.70;77.10
67161;DHT22;54088;52.238;21.104;2022-10-16T00:28:25;15.70;77.30
67161;DHT22;54088;52.238;21.104;2022-10-16T00:30:51;15.70;77.40
67161;DHT22;54088;52.238;21.104;2022-10-16T00:33:17;15.70;77.40
67161;DHT22;54088;52.238;21.104;2022-10-16T00:35:42;15.70;77.50
67161;DHT22;54088;52.238;21.104;2022-10-16T00:38:09;15.70;77.80
67161;DHT22;54088;52.238;21.104;2022-10-16T00:40:34;15.70;77.90
67161;DHT22;54088;52.238;21.104;2022-10-16T00:43:00;15.70;78.10
67161;DHT22;54088;52.238;21.104;2022-10-16T00:45:26;15.70;78.50
67161;DHT22;54088;52.238;21.104;2022-10-16T00:47:54;15.60;78.90
67161;DHT22;54088;52.238;21.104;2022-10-16T00:52:55;15.50;81.10
67161;DHT22;54088;52.238;21.104;2022-10-16T00:55:21;15.40;81.80
67161;DHT22;54088;52.238;21.104;2022-10-16T00:57:48;15.40;82.30
67161;DHT22;54088;52.238;21.104;2022-10-16T01:00:20;15.30;82.80
67161;DHT22;54088;52.238;21.104;2022-10-16T01:02:54;15.20;83.10
67161;DHT22;54088;52.238;21.104;2022-10-16T01:05:22;15.20;83.70
67161;DHT22;54088;52.238;21.104;2022-10-16T01:08:17;15.10;84.10
67161;DHT22;54088;52.238;21.104;2022-10-16T01:10:59;15.10;84.40
67161;DHT22;54088;52.238;21.104;2022-10-16T01:13:29;15.10;83.60
67161;DHT22;54088;52.238;21.104;2022-10-16T01:15:56;15.20;83.20
67161;DHT22;54088;52.238;21.104;2022-10-16T01:18:44;15.20;82.90
67161;DHT22;54088;52.238;21.104;2022-10-16T01:21:19;15.20;82.50
67161;DHT22;54088;52.238;21.104;2022-10-16T01:29:50;15.30;82.40
67161;DHT22;54088;52.238;21.104;2022-10-16T01:35:08;15.30;82.20
67161;DHT22;54088;52.238;21.104;2022-10-16T01:37:51;15.40;82.00
67161;DHT22;54088;52.238;21.104;2022-10-16T01:40:19;15.30;81.60
67161;DHT22;54088;52.238;21.104;2022-10-16T01:42:53;15.30;81.70
67161;DHT22;54088;52.238;21.104;2022-10-16T01:45:21;15.30;81.90
67161;DHT22;54088;52.238;21.104;2022-10-16T01:47:49;15.40;81.80
67161;DHT22;54088;52.238;21.104;2022-10-16T01:50:18;15.40;81.90
67161;DHT22;54088;52.238;21.104;2022-10-16T01:52:46;15.40;82.00
67161;DHT22;54088;52.238;21.104;2022-10-16T01:55:16;15.30;82.00
67161;DHT22;54088;52.238;21.104;2022-10-16T01:57:46;15.30;82.30
67161;DHT22;54088;52.238;21.104;2022-10-16T02:00:14;15.30;82.50
67161;DHT22;54088;52.238;21.104;2022-10-16T02:02:43;15.30;82.50
67161;DHT22;54088;52.238;21.104;2022-10-16T02:07:38;15.20;83.50
67161;DHT22;54088;52.238;21.104;2022-10-16T02:10:06;15.20;83.60
67161;DHT22;54088;52.238;21.104;2022-10-16T02:12:34;15.20;83.80
67161;DHT22;54088;52.238;21.104;2022-10-16T02:15:00;15.20;84.00
67161;DHT22;54088;52.238;21.104;2022-10-16T02:17:26;15.20;84.20
67161;DHT22;54088;52.238;21.104;2022-10-16T02:19:54;15.20;84.90
67161;DHT22;54088;52.238;21.104;2022-10-16T02:22:34;15.20;84.40
67161;DHT22;54088;52.238;21.104;2022-10-16T02:25:12;15.10;84.60
67161;DHT22;54088;52.238;21.104;2022-10-16T02:28:28;15.00;85.00
67161;DHT22;54088;52.238;21.104;2022-10-16T02:30:33;14.90;85.30
67161;DHT22;54088;52.238;21.104;2022-10-16T02:33:02;15.00;85.50
67161;DHT22;54088;52.238;21.104;2022-10-16T02:35:30;14.90;85.50
67161;DHT22;54088;52.238;21.104;2022-10-16T02:37:57;14.90;85.60
67161;DHT22;54088;52.238;21.104;2022-10-16T02:40:25;14.80;85.90
67161;DHT22;54088;52.238;21.104;2022-10-16T02:42:52;14.80;86.10
67161;DHT22;54088;52.238;21.104;2022-10-16T02:45:19;14.80;86.50
67161;DHT22;54088;52.238;21.104;2022-10-16T02:47:45;14.70;86.70
67161;DHT22;54088;52.238;21.104;2022-10-16T02:50:10;14.70;87.00
67161;DHT22;54088;52.238;21.104;2022-10-16T02:52:36;14.70;87.20
67161;DHT22;54088;52.238;21.104;2022-10-16T02:55:02;14.60;87.30
67161;DHT22;54088;52.238;21.104;2022-10-16T02:57:27;14.60;87.60
67161;DHT22;54088;52.238;21.104;2022-10-16T02:59:53;14.60;87.60
67161;DHT22;54088;52.238;21.104;2022-10-16T03:02:19;14.60;87.60
67161;DHT22;54088;52.238;21.104;2022-10-16T03:04:45;14.70;87.50
67161;DHT22;54088;52.238;21.104;2022-10-16T03:07:10;14.70;87.50
67161;DHT22;54088;52.238;21.104;2022-10-16T03:09:36;14.70;87.40
67161;DHT22;54088;52.238;21.104;2022-10-16T03:12:02;14.70;87.30
67161;DHT22;54088;52.238;21.104;2022-10-16T03:14:27;14.70;87.30
67161;DHT22;54088;52.238;21.104;2022-10-16T03:16:53;14.80;87.00
67161;DHT22;54088;52.238;21.104;2022-10-16T03:19:19;14.80;87.00
67161;DHT22;54088;52.238;21.104;2022-10-16T03:21:45;14.80;86.80
67161;DHT22;54088;52.238;21.104;2022-10-16T03:24:11;14.70;86.60
67161;DHT22;54088;52.238;21.104;2022-10-16T03:26:36;14.80;86.60
67161;DHT22;54088;52.238;21.104;2022-10-16T03:29:02;14.80;86.40
67161;DHT22;54088;52.238;21.104;2022-10-16T03:31:29;14.80;86.20
67161;DHT22;54088;52.238;21.104;2022-10-16T03:33:55;14.80;86.10
67161;DHT22;54088;52.238;21.104;2022-10-16T03:36:20;14.80;86.00
67161;DHT22;54088;52.238;21.104;2022-10-16T03:38:46;14.80;85.80
67161;DHT22;54088;52.238;21.104;2022-10-16T03:41:12;14.80;85.70
67161;DHT22;54088;52.238;21.104;2022-10-16T03:43:38;14.80;85.90
67161;DHT22;54088;52.238;21.104;2022-10-16T03:46:04;14.80;86.10
67161;DHT22;54088;52.238;21.104;2022-10-16T03:48:29;14.80;86.10
67161;DHT22;54088;52.238;21.104;2022-10-16T03:50:55;14.70;86.30
67161;DHT22;54088;52.238;21.104;2022-10-16T03:53:21;14.70;86.40
67161;DHT22;54088;52.238;21.104;2022-10-16T03:55:46;14.70;86.40
67161;DHT22;54088;52.238;21.104;2022-10-16T03:58:12;14.70;86.40
67161;DHT22;54088;52.238;21.104;2022-10-16T04:00:42;14.70;86.60
67161;DHT22;54088;52.238;21.104;2022-10-16T04:03:08;14.70;86.50
67161;DHT22;54088;52.238;21.104;2022-10-16T04:05:34;14.70;86.30
67161;DHT22;54088;52.238;21.104;2022-10-16T04:07:59;14.80;86.20
67161;DHT22;54088;52.238;21.104;2022-10-16T04:10:25;14.80;85.90
67161;DHT22;54088;52.238;21.104;2022-10-16T04:12:51;14.80;85.80
67161;DHT22;54088;52.238;21.104;2022-10-16T04:15:16;14.80;85.70
67161;DHT22;54088;52.238;21.104;2022-10-16T04:17:42;14.70;85.70
67161;DHT22;54088;52.238;21.104;2022-10-16T04:20:08;14.60;85.90
67161;DHT22;54088;52.238;21.104;2022-10-16T04:22:34;14.50;86.40
67161;DHT22;54088;52.238;21.104;2022-10-16T04:24:59;14.40;86.60
67161;DHT22;54088;52.238;21.104;2022-10-16T04:27:25;14.40;86.90
67161;DHT22;54088;52.238;21.104;2022-10-16T04:29:50;14.40;86.80
67161;DHT22;54088;52.238;21.104;2022-10-16T04:32:16;14.30;86.80
67161;DHT22;54088;52.238;21.104;2022-10-16T04:34:42;14.30;86.90
67161;DHT22;54088;52.238;21.104;2022-10-16T04:37:07;14.30;87.00
67161;DHT22;54088;52.238;21.104;2022-10-16T04:39:33;14.30;87.10
67161;DHT22;54088;52.238;21.104;2022-10-16T04:41:59;14.20;87.40
67161;DHT22;54088;52.238;21.104;2022-10-16T04:44:24;14.20;87.60
67161;DHT22;54088;52.238;21.104;2022-10-16T04:46:51;14.00;87.80
67161;DHT22;54088;52.238;21.104;2022-10-16T04:49:16;14.00;88.00
67161;DHT22;54088;52.238;21.104;2022-10-16T04:51:42;14.00;88.20
67161;DHT22;54088;52.238;21.104;2022-10-16T04:54:09;14.00;88.20
67161;DHT22;54088;52.238;21.104;2022-10-16T04:56:35;14.00;88.00
67161;DHT22;54088;52.238;21.104;2022-10-16T04:59:08;14.10;87.70
67161;DHT22;54088;52.238;21.104;2022-10-16T05:01:34;14.10;87.40
67161;DHT22;54088;52.238;21.104;2022-10-16T05:04:00;14.10;87.10
67161;DHT22;54088;52.238;21.104;2022-10-16T05:06:25;14.20;87.10
67161;DHT22;54088;52.238;21.104;2022-10-16T05:08:51;14.20;86.90
67161;DHT22;54088;52.238;21.104;2022-10-16T05:11:17;14.20;86.80
67161;DHT22;54088;52.238;21.104;2022-10-16T05:13:42;14.20;86.60
67161;DHT22;54088;52.238;21.104;2022-10-16T05:16:08;14.30;86.60
67161;DHT22;54088;52.238;21.104;2022-10-16T05:18:33;14.30;86.30
67161;DHT22;54088;52.238;21.104;2022-10-16T05:20:59;14.30;86.20
67161;DHT22;54088;52.238;21.104;2022-10-16T05:23:25;14.30;86.00
67161;DHT22;54088;52.238;21.104;2022-10-16T05:25:57;14.30;85.90
67161;DHT22;54088;52.238;21.104;2022-10-16T05:28:28;14.40;85.60
67161;DHT22;54088;52.238;21.104;2022-10-16T05:30:54;14.50;85.30
67161;DHT22;54088;52.238;21.104;2022-10-16T05:33:20;14.60;85.10
67161;DHT22;54088;52.238;21.104;2022-10-16T05:35:47;14.50;84.60
67161;DHT22;54088;52.238;21.104;2022-10-16T05:38:13;14.60;84.50
67161;DHT22;54088;52.238;21.104;2022-10-16T05:40:38;14.60;84.60
67161;DHT22;54088;52.238;21.104;2022-10-16T05:43:04;14.60;84.40
67161;DHT22;54088;52.238;21.104;2022-10-16T05:45:30;14.60;84.10
67161;DHT22;54088;52.238;21.104;2022-10-16T05:47:55;14.70;84.00
67161;DHT22;54088;52.238;21.104;2022-10-16T05:50:21;14.70;83.70
67161;DHT22;54088;52.238;21.104;2022-10-16T05:52:47;14.60;83.80
67161;DHT22;54088;52.238;21.104;2022-10-16T05:55:12;14.60;83.80
67161;DHT22;54088;52.238;21.104;2022-10-16T05:57:38;14.60;84.10
67161;DHT22;54088;52.238;21.104;2022-10-16T06:00:05;14.60;84.30
67161;DHT22;54088;52.238;21.104;2022-10-16T06:02:30;14.70;84.10
67161;DHT22;54088;52.238;21.104;2022-10-16T06:04:56;14.70;83.90
67161;DHT22;54088;52.238;21.104;2022-10-16T06:07:22;14.70;83.70
67161;DHT22;54088;52.238;21.104;2022-10-16T06:09:52;14.70;83.80
67161;DHT22;54088;52.238;21.104;2022-10-16T06:12:18;14.80;83.50
67161;DHT22;54088;52.238;21.104;2022-10-16T06:14:45;14.90;83.00
67161;DHT22;54088;52.238;21.104;2022-10-16T06:17:13;15.30;81.80
67161;DHT22;54088;52.238;21.104;2022-10-16T06:19:39;15.80;80.20
67161;DHT22;54088;52.238;21.104;2022-10-16T06:22:05;16.30;77.80
67161;DHT22;54088;52.238;21.104;2022-10-16T06:24:30;16.90;76.00
67161;DHT22;54088;52.238;21.104;2022-10-16T06:26:56;17.30;73.50
67161;DHT22;54088;52.238;21.104;2022-10-16T06:29:21;17.60;72.60
67161;DHT22;54088;52.238;21.104;2022-10-16T06:31:47;17.80;71.50
67161;DHT22;54088;52.238;21.104;2022-10-16T06:34:13;17.90;70.70
67161;DHT22;54088;52.238;21.104;2022-10-16T06:36:39;17.90;70.40
67161;DHT22;54088;52.238;21.104;2022-10-16T06:39:05;17.80;70.40
67161;DHT22;54088;52.238;21.104;2022-10-16T06:41:33;17.60;70.80
67161;DHT22;54088;52.238;21.104;2022-10-16T06:43:59;17.50;71.00
67161;DHT22;54088;52.238;21.104;2022-10-16T06:46:26;17.40;71.90
67161;DHT22;54088;52.238;21.104;2022-10-16T06:48:53;17.30;71.60
67161;DHT22;54088;52.238;21.104;2022-10-16T06:51:23;17.10;72.00
67161;DHT22;54088;52.238;21.104;2022-10-16T06:53:52;17.00;72.60
67161;DHT22;54088;52.238;21.104;2022-10-16T06:56:23;17.00;72.60
67161;DHT22;54088;52.238;21.104;2022-10-16T06:58:50;17.20;72.40
67161;DHT22;54088;52.238;21.104;2022-10-16T07:01:17;17.50;71.50
67161;DHT22;54088;52.238;21.104;2022-10-16T07:03:45;17.90;70.10
67161;DHT22;54088;52.238;21.104;2022-10-16T07:06:12;18.50;68.50
67161;DHT22;54088;52.238;21.104;2022-10-16T07:08:40;19.00;67.40
67161;DHT22;54088;52.238;21.104;2022-10-16T07:11:12;19.00;66.20
67161;DHT22;54088;52.238;21.104;2022-10-16T07:13:40;18.90;66.40
67161;DHT22;54088;52.238;21.104;2022-10-16T07:18:32;18.70;66.80
67161;DHT22;54088;52.238;21.104;2022-10-16T07:21:15;18.50;67.70
67161;DHT22;54088;52.238;21.104;2022-10-16T07:23:41;18.40;68.00
67161;DHT22;54088;52.238;21.104;2022-10-16T07:26:07;18.20;68.10
67161;DHT22;54088;52.238;21.104;2022-10-16T07:28:33;17.90;69.20
67161;DHT22;54088;52.238;21.104;2022-10-16T07:31:08;17.70;69.90
67161;DHT22;54088;52.238;21.104;2022-10-16T07:33:37;17.50;70.70
67161;DHT22;54088;52.238;21.104;2022-10-16T07:36:04;17.50;71.20
67161;DHT22;54088;52.238;21.104;2022-10-16T07:38:29;17.60;71.30
67161;DHT22;54088;52.238;21.104;2022-10-16T07:41:03;17.80;70.90
67161;DHT22;54088;52.238;21.104;2022-10-16T07:43:29;17.90;70.60
67161;DHT22;54088;52.238;21.104;2022-10-16T07:45:55;18.20;70.40
67161;DHT22;54088;52.238;21.104;2022-10-16T07:48:22;18.50;69.30
67161;DHT22;54088;52.238;21.104;2022-10-16T07:50:48;18.80;68.50
67161;DHT22;54088;52.238;21.104;2022-10-16T07:53:14;19.00;68.00
67161;DHT22;54088;52.238;21.104;2022-10-16T07:55:40;19.60;66.80
67161;DHT22;54088;52.238;21.104;2022-10-16T07:58:06;20.00;65.60
67161;DHT22;54088;52.238;21.104;2022-10-16T08:00:32;21.20;64.60
67161;DHT22;54088;52.238;21.104;2022-10-16T08:02:58;22.80;59.80
67161;DHT22;54088;52.238;21.104;2022-10-16T08:05:28;23.50;55.70
67161;DHT22;54088;52.238;21.104;2022-10-16T08:07:54;23.30;55.50
67161;DHT22;54088;52.238;21.104;2022-10-16T08:10:22;23.20;55.80
67161;DHT22;54088;52.238;21.104;2022-10-16T08:12:48;23.30;55.70
67161;DHT22;54088;52.238;21.104;2022-10-16T08:15:14;24.00;54.40
67161;DHT22;54088;52.238;21.104;2022-10-16T08:17:39;24.50;53.30
67161;DHT22;54088;52.238;21.104;2022-10-16T08:20:05;25.60;51.90
67161;DHT22;54088;52.238;21.104;2022-10-16T08:22:31;26.50;50.50
67161;DHT22;54088;52.238;21.104;2022-10-16T08:24:57;27.00;47.80
67161;DHT22;54088;52.238;21.104;2022-10-16T08:27:22;26.90;48.10
67161;DHT22;54088;52.238;21.104;2022-10-16T08:29:51;25.70;48.60
67161;DHT22;54088;52.238;21.104;2022-10-16T08:32:17;25.10;50.60
67161;DHT22;54088;52.238;21.104;2022-10-16T08:34:42;24.80;51.50
67161;DHT22;54088;52.238;21.104;2022-10-16T08:37:08;25.50;50.30
67161;DHT22;54088;52.238;21.104;2022-10-16T08:39:36;26.20;49.70
67161;DHT22;54088;52.238;21.104;2022-10-16T08:42:54;26.40;48.00
67161;DHT22;54088;52.238;21.104;2022-10-16T08:45:13;25.70;48.90
67161;DHT22;54088;52.238;21.104;2022-10-16T08:50:37;24.10;52.00
67161;DHT22;54088;52.238;21.104;2022-10-16T08:53:04;23.50;54.00
67161;DHT22;54088;52.238;21.104;2022-10-16T08:55:37;23.20;54.50
67161;DHT22;54088;52.238;21.104;2022-10-16T08:58:12;23.00;55.30
67161;DHT22;54088;52.238;21.104;2022-10-16T09:00:38;22.70;56.10
67161;DHT22;54088;52.238;21.104;2022-10-16T09:05:57;23.60;55.00
67161;DHT22;54088;52.238;21.104;2022-10-16T09:11:30;23.80;53.90
67161;DHT22;54088;52.238;21.104;2022-10-16T09:14:49;23.90;54.20
67161;DHT22;54088;52.238;21.104;2022-10-16T09:22:31;26.20;49.60
67161;DHT22;54088;52.238;21.104;2022-10-16T09:25:00;27.20;48.40
67161;DHT22;54088;52.238;21.104;2022-10-16T09:27:30;27.80;47.20
67161;DHT22;54088;52.238;21.104;2022-10-16T09:29:56;28.00;46.00
67161;DHT22;54088;52.238;21.104;2022-10-16T09:32:22;28.00;46.10
67161;DHT22;54088;52.238;21.104;2022-10-16T09:34:54;28.70;46.10
67161;DHT22;54088;52.238;21.104;2022-10-16T09:37:23;28.10;45.20
67161;DHT22;54088;52.238;21.104;2022-10-16T09:39:53;27.10;46.50
67161;DHT22;54088;52.238;21.104;2022-10-16T09:42:27;26.50;47.60
67161;DHT22;54088;52.238;21.104;2022-10-16T09:44:56;26.30;48.50
67161;DHT22;54088;52.238;21.104;2022-10-16T09:47:27;25.80;49.60
67161;DHT22;54088;52.238;21.104;2022-10-16T09:49:59;25.50;50.90
67161;DHT22;54088;52.238;21.104;2022-10-16T09:52:28;25.30;50.80
67161;DHT22;54088;52.238;21.104;2022-10-16T09:55:02;24.90;51.70
67161;DHT22;54088;52.238;21.104;2022-10-16T09:57:28;24.70;52.10
67161;DHT22;54088;52.238;21.104;2022-10-16T09:59:57;24.40;53.10
67161;DHT22;54088;52.238;21.104;2022-10-16T10:02:36;24.40;53.20
67161;DHT22;54088;52.238;21.104;2022-10-16T10:05:18;24.90;52.30
67161;DHT22;54088;52.238;21.104;2022-10-16T10:07:44;25.40;51.40
67161;DHT22;54088;52.238;21.104;2022-10-16T10:10:21;25.60;51.40
67161;DHT22;54088;52.238;21.104;2022-10-16T10:12:47;25.30;52.00
67161;DHT22;54088;52.238;21.104;2022-10-16T10:15:14;25.10;51.90
67161;DHT22;54088;52.238;21.104;2022-10-16T10:17:51;24.90;52.70
67161;DHT22;54088;52.238;21.104;2022-10-16T10:22:53;24.50;53.10
67161;DHT22;54088;52.238;21.104;2022-10-16T10:44:05;23.70;55.80
67161;DHT22;54088;52.238;21.104;2022-10-16T10:46:48;23.70;56.00
67161;DHT22;54088;52.238;21.104;2022-10-16T10:49:48;23.70;56.40
67161;DHT22;54088;52.238;21.104;2022-10-16T11:08:17;23.40;57.00
67161;DHT22;54088;52.238;21.104;2022-10-16T11:10:58;23.30;56.80
67161;DHT22;54088;52.238;21.104;2022-10-16T11:13:38;23.20;57.30
67161;DHT22;54088;52.238;21.104;2022-10-16T11:16:18;23.10;57.80
67161;DHT22;54088;52.238;21.104;2022-10-16T11:19:11;23.10;57.90
67161;DHT22;54088;52.238;21.104;2022-10-16T11:21:50;23.20;58.30
67161;DHT22;54088;52.238;21.104;2022-10-16T11:24:23;23.20;57.40
67161;DHT22;54088;52.238;21.104;2022-10-16T11:26:53;23.00;57.70
67161;DHT22;54088;52.238;21.104;2022-10-16T11:29:26;23.00;58.00
67161;DHT22;54088;52.238;21.104;2022-10-16T11:31:59;23.00;58.10
67161;DHT22;54088;52.238;21.104;2022-10-16T11:34:39;23.10;58.10
67161;DHT22;54088;52.238;21.104;2022-10-16T11:37:18;23.00;58.00
67161;DHT22;54088;52.238;21.104;2022-10-16T11:39:46;22.90;57.90
67161;DHT22;54088;52.238;21.104;2022-10-16T11:42:19;22.80;58.50
67161;DHT22;54088;52.238;21.104;2022-10-16T11:44:55;22.80;58.90
67161;DHT22;54088;52.238;21.104;2022-10-16T11:47:43;22.80;58.70
67161;DHT22;54088;52.238;21.104;2022-10-16T11:50:37;22.70;59.20
67161;DHT22;54088;52.238;21.104;2022-10-16T11:55:52;22.80;58.80
67161;DHT22;54088;52.238;21.104;2022-10-16T12:03:35;22.70;59.10
67161;DHT22;54088;52.238;21.104;2022-10-16T12:08:54;22.60;59.50
67161;DHT22;54088;52.238;21.104;2022-10-16T12:19:20;22.30;60.00
67161;DHT22;54088;52.238;21.104;2022-10-16T12:21:46;22.40;59.80
67161;DHT22;54088;52.238;21.104;2022-10-16T12:24:34;22.40;59.90
67161;DHT22;54088;52.238;21.104;2022-10-16T12:27:01;22.50;60.00
67161;DHT22;54088;52.238;21.104;2022-10-16T12:31:59;22.50;60.60
67161;DHT22;54088;52.238;21.104;2022-10-16T12:36:51;22.60;60.30
67161;DHT22;54088;52.238;21.104;2022-10-16T12:39:22;22.60;59.50
67161;DHT22;54088;52.238;21.104;2022-10-16T12:41:48;22.50;59.60
67161;DHT22;54088;52.238;21.104;2022-10-16T12:44:23;22.40;60.10
67161;DHT22;54088;52.238;21.104;2022-10-16T12:46:51;22.30;60.30
67161;DHT22;54088;52.238;21.104;2022-10-16T12:49:32;22.30;60.60
67161;DHT22;54088;52.238;21.104;2022-10-16T12:52:00;22.20;60.80
67161;DHT22;54088;52.238;21.104;2022-10-16T12:54:37;22.10;61.00
67161;DHT22;54088;52.238;21.104;2022-10-16T13:02:45;22.10;61.00
67161;DHT22;54088;52.238;21.104;2022-10-16T13:05:22;22.00;61.40
67161;DHT22;54088;52.238;21.104;2022-10-16T13:08:10;22.00;61.80
67161;DHT22;54088;52.238;21.104;2022-10-16T13:13:44;22.00;62.20
67161;DHT22;54088;52.238;21.104;2022-10-16T13:16:22;21.90;62.20
67161;DHT22;54088;52.238;21.104;2022-10-16T13:24:59;21.70;62.90
67161;DHT22;54088;52.238;21.104;2022-10-16T13:30:15;21.60;63.10
67161;DHT22;54088;52.238;21.104;2022-10-16T13:32:48;21.60;63.50
67161;DHT22;54088;52.238;21.104;2022-10-16T13:35:21;21.50;64.40
67161;DHT22;54088;52.238;21.104;2022-10-16T13:37:46;21.40;63.70
67161;DHT22;54088;52.238;21.104;2022-10-16T13:40:20;21.40;64.00
67161;DHT22;54088;52.238;21.104;2022-10-16T13:42:46;21.40;64.80
67161;DHT22;54088;52.238;21.104;2022-10-16T13:45:20;21.30;64.50
67161;DHT22;54088;52.238;21.104;2022-10-16T13:47:46;21.30;64.80
67161;DHT22;54088;52.238;21.104;2022-10-16T13:50:15;21.30;65.10
67161;DHT22;54088;52.238;21.104;2022-10-16T13:52:40;21.30;65.40
67161;DHT22;54088;52.238;21.104;2022-10-16T13:55:12;21.20;65.50
67161;DHT22;54088;52.238;21.104;2022-10-16T13:57:38;21.20;65.40
67161;DHT22;54088;52.238;21.104;2022-10-16T14:00:21;21.30;65.30
67161;DHT22;54088;52.238;21.104;2022-10-16T14:02:53;21.30;65.70
67161;DHT22;54088;52.238;21.104;2022-10-16T14:05:20;21.20;65.80
67161;DHT22;54088;52.238;21.104;2022-10-16T14:07:49;21.30;65.30
67161;DHT22;54088;52.238;21.104;2022-10-16T14:10:28;21.30;65.40
67161;DHT22;54088;52.238;21.104;2022-10-16T14:13:00;21.30;65.20
67161;DHT22;54088;52.238;21.104;2022-10-16T14:15:26;21.30;65.30
67161;DHT22;54088;52.238;21.104;2022-10-16T14:17:53;21.30;65.50
67161;DHT22;54088;52.238;21.104;2022-10-16T14:20:23;21.30;65.30
67161;DHT22;54088;52.238;21.104;2022-10-16T14:23:20;21.30;65.50
67161;DHT22;54088;52.238;21.104;2022-10-16T14:25:44;21.30;65.80
67161;DHT22;54088;52.238;21.104;2022-10-16T14:38:39;21.20;66.40
67161;DHT22;54088;52.238;21.104;2022-10-16T14:41:06;21.20;66.40
67161;DHT22;54088;52.238;21.104;2022-10-16T14:43:33;21.10;66.70
67161;DHT22;54088;52.238;21.104;2022-10-16T14:46:02;21.10;66.80
67161;DHT22;54088;52.238;21.104;2022-10-16T14:48:29;21.10;66.70
67161;DHT22;54088;52.238;21.104;2022-10-16T14:50:55;21.20;66.70
67161;DHT22;54088;52.238;21.104;2022-10-16T14:53:21;21.10;67.20
67161;DHT22;54088;52.238;21.104;2022-10-16T14:55:46;21.10;66.60
67161;DHT22;54088;52.238;21.104;2022-10-16T14:58:18;21.10;66.80
67161;DHT22;54088;52.238;21.104;2022-10-16T15:00:45;21.10;66.80
67161;DHT22;54088;52.238;21.104;2022-10-16T15:03:11;21.10;66.90
67161;DHT22;54088;52.238;21.104;2022-10-16T15:05:37;21.10;67.00
67161;DHT22;54088;52.238;21.104;2022-10-16T15:08:02;21.00;67.00
67161;DHT22;54088;52.238;21.104;2022-10-16T15:10:30;21.00;67.20
67161;DHT22;54088;52.238;21.104;2022-10-16T15:12:58;21.00;67.20
67161;DHT22;54088;52.238;21.104;2022-10-16T15:15:43;21.00;67.20
67161;DHT22;54088;52.238;21.104;2022-10-16T15:18:09;21.00;67.40
67161;DHT22;54088;52.238;21.104;2022-10-16T15:20:36;20.90;67.50
67161;DHT22;54088;52.238;21.104;2022-10-16T15:23:05;20.90;67.70
67161;DHT22;54088;52.238;21.104;2022-10-16T15:25:39;20.90;67.70
67161;DHT22;54088;52.238;21.104;2022-10-16T15:28:07;20.80;67.70
67161;DHT22;54088;52.238;21.104;2022-10-16T15:30:34;20.80;67.90
67161;DHT22;54088;52.238;21.104;2022-10-16T15:33:01;20.80;67.90
67161;DHT22;54088;52.238;21.104;2022-10-16T15:35:26;20.80;68.10
67161;DHT22;54088;52.238;21.104;2022-10-16T15:37:52;20.70;68.60
67161;DHT22;54088;52.238;21.104;2022-10-16T15:40:19;20.70;68.50
67161;DHT22;54088;52.238;21.104;2022-10-16T15:42:45;20.70;68.50
67161;DHT22;54088;52.238;21.104;2022-10-16T15:45:12;20.70;68.70
67161;DHT22;54088;52.238;21.104;2022-10-16T15:47:37;20.60;68.80
67161;DHT22;54088;52.238;21.104;2022-10-16T15:50:04;20.60;68.90
67161;DHT22;54088;52.238;21.104;2022-10-16T15:52:30;20.60;69.00
67161;DHT22;54088;52.238;21.104;2022-10-16T15:54:57;20.50;69.20
67161;DHT22;54088;52.238;21.104;2022-10-16T15:57:23;20.50;69.20
67161;DHT22;54088;52.238;21.104;2022-10-16T15:59:49;20.50;69.30
67161;DHT22;54088;52.238;21.104;2022-10-16T16:02:15;20.50;69.40
67161;DHT22;54088;52.238;21.104;2022-10-16T16:04:41;20.50;69.60
67161;DHT22;54088;52.238;21.104;2022-10-16T16:07:06;20.50;69.70
67161;DHT22;54088;52.238;21.104;2022-10-16T16:09:33;20.40;69.80
67161;DHT22;54088;52.238;21.104;2022-10-16T16:11:59;20.40;69.90
67161;DHT22;54088;52.238;21.104;2022-10-16T16:14:26;20.40;70.10
67161;DHT22;54088;52.238;21.104;2022-10-16T16:16:54;20.30;70.20
67161;DHT22;54088;52.238;21.104;2022-10-16T16:19:20;20.30;70.30
67161;DHT22;54088;52.238;21.104;2022-10-16T16:21:47;20.30;70.40
67161;DHT22;54088;52.238;21.104;2022-10-16T16:24:13;20.30;70.40
67161;DHT22;54088;52.238;21.104;2022-10-16T16:26:39;20.30;70.50
67161;DHT22;54088;52.238;21.104;2022-10-16T16:29:12;20.20;70.80
67161;DHT22;54088;52.238;21.104;2022-10-16T16:31:39;20.20;70.80
67161;DHT22;54088;52.238;21.104;2022-10-16T16:34:05;20.20;71.10
67161;DHT22;54088;52.238;21.104;2022-10-16T16:36:31;20.10;71.30
67161;DHT22;54088;52.238;21.104;2022-10-16T16:38:57;20.10;71.50
67161;DHT22;54088;52.238;21.104;2022-10-16T16:41:25;20.00;71.80
67161;DHT22;54088;52.238;21.104;2022-10-16T16:43:52;20.00;71.90
67161;DHT22;54088;52.238;21.104;2022-10-16T16:46:18;20.00;72.10
67161;DHT22;54088;52.238;21.104;2022-10-16T16:48:44;19.90;72.40
67161;DHT22;54088;52.238;21.104;2022-10-16T16:51:12;19.90;72.40
67161;DHT22;54088;52.238;21.104;2022-10-16T16:53:44;19.90;72.50
67161;DHT22;54088;52.238;21.104;2022-10-16T16:56:09;19.90;72.60
67161;DHT22;54088;52.238;21.104;2022-10-16T16:58:35;19.90;72.70
67161;DHT22;54088;52.238;21.104;2022-10-16T17:01:02;19.90;72.90
67161;DHT22;54088;52.238;21.104;2022-10-16T17:03:33;19.90;73.00
67161;DHT22;54088;52.238;21.104;2022-10-16T17:06:06;19.80;73.30
67161;DHT22;54088;52.238;21.104;2022-10-16T17:08:35;19.70;73.50
67161;DHT22;54088;52.238;21.104;2022-10-16T17:11:02;19.70;73.60
67161;DHT22;54088;52.238;21.104;2022-10-16T17:13:31;19.60;73.80
67161;DHT22;54088;52.238;21.104;2022-10-16T17:15:57;19.60;74.10
67161;DHT22;54088;52.238;21.104;2022-10-16T17:18:23;19.50;74.20
67161;DHT22;54088;52.238;21.104;2022-10-16T17:20:50;19.50;74.50
67161;DHT22;54088;52.238;21.104;2022-10-16T17:23:17;19.40;74.70
67161;DHT22;54088;52.238;21.104;2022-10-16T17:25:43;19.40;74.80